Terminal Aerodrome Forecast
Issued by NWS Riverton, WY

Home | Current Version | Previous Version | Text Only | Print | Product List | Glossary On
Versions: 1 2 3 4 5 6 7 8 9 10 11 12 13 14 15 16 17 18
025
FTUS45 KRIW 231337 AAB
TAFRIW
TAF AMD
KRIW 231337Z 2314/2412 VRB04KT 5SM -RA BR SCT016 OVC025
      TEMPO 2314/2315 3SM RA OVC015
     FM231800 01014G22KT 5SM -RASN OVC016
     FM232100 36014G24KT 3SM -SN OVC018
     FM240200 36014KT P6SM VCSH SCT020 OVC040
     FM240400 34009KT P6SM OVC050
     FM241000 33006KT P6SM SCT050 BKN090=

USA.gov is the U.S. government's official web portal to all federal, state and local government web resources and services.